Terminal Aerodrome Forecast
Issued by NWS

Home | Current Version | Previous Version | Text Only | Print | Product List | Glossary Off
Versions: 1 2 3 4 5 6 7 8 9 10 11 12 13 14 15 16 17

000
FTUS43 KMPX 170500
TAFRNH
TAF
KRNH 170520Z 1706/1806 30008KT P6SM -SN OVC020
     FM172100 33004KT P6SM SCT020 BKN050
     FM180300 36002KT P6SM BKN100=

USA.gov is the U.S. government's official web portal to all federal, state and local government web resources and services.